sensor_id;sensor_type;location;lat;lon;timestamp;pressure;altitude;pressure_sealevel;temperature;humidity
68793;BME280;55778;54.346;10.210;2023-03-04T00:02:09;101463.84;;;5.27;97.36
68793;BME280;55778;54.346;10.210;2023-03-04T00:04:34;101467.31;;;5.29;97.05
68793;BME280;55778;54.346;10.210;2023-03-04T00:07:00;101469.16;;;5.29;97.25
68793;BME280;55778;54.346;10.210;2023-03-04T00:09:25;101472.03;;;5.26;97.22
68793;BME280;55778;54.346;10.210;2023-03-04T00:11:51;101465.56;;;5.28;96.89
68793;BME280;55778;54.346;10.210;2023-03-04T00:14:16;101467.50;;;5.26;96.90
68793;BME280;55778;54.346;10.210;2023-03-04T00:16:42;101462.13;;;5.26;96.94
68793;BME280;55778;54.346;10.210;2023-03-04T00:19:11;101443.19;;;5.26;97.02
68793;BME280;55778;54.346;10.210;2023-03-04T00:21:36;101456.81;;;5.25;97.27
68793;BME280;55778;54.346;10.210;2023-03-04T00:24:02;101457.94;;;5.21;97.72
68793;BME280;55778;54.346;10.210;2023-03-04T00:26:27;101451.00;;;5.17;98.17
68793;BME280;55778;54.346;10.210;2023-03-04T00:28:53;101436.22;;;5.22;97.65
68793;BME280;55778;54.346;10.210;2023-03-04T00:31:18;101433.53;;;5.22;97.81
68793;BME280;55778;54.346;10.210;2023-03-04T00:33:44;101457.09;;;5.20;98.04
68793;BME280;55778;54.346;10.210;2023-03-04T00:36:10;101442.59;;;5.21;97.84
68793;BME280;55778;54.346;10.210;2023-03-04T00:38:35;101458.63;;;5.24;97.94
68793;BME280;55778;54.346;10.210;2023-03-04T00:41:01;101451.50;;;5.23;97.85
68793;BME280;55778;54.346;10.210;2023-03-04T00:43:26;101451.31;;;5.26;98.00
68793;BME280;55778;54.346;10.210;2023-03-04T00:45:52;101452.06;;;5.28;97.84
68793;BME280;55778;54.346;10.210;2023-03-04T00:48:17;101450.41;;;5.26;98.12
68793;BME280;55778;54.346;10.210;2023-03-04T00:50:43;101453.41;;;5.21;98.53
68793;BME280;55778;54.346;10.210;2023-03-04T00:53:11;101459.41;;;5.26;98.45
68793;BME280;55778;54.346;10.210;2023-03-04T00:55:36;101458.53;;;5.26;98.66
68793;BME280;55778;54.346;10.210;2023-03-04T00:58:02;101455.72;;;5.27;98.65
68793;BME280;55778;54.346;10.210;2023-03-04T01:00:27;101451.59;;;5.22;99.16
68793;BME280;55778;54.346;10.210;2023-03-04T01:02:53;101441.34;;;5.27;98.68
68793;BME280;55778;54.346;10.210;2023-03-04T01:05:18;101452.06;;;5.28;99.01
68793;BME280;55778;54.346;10.210;2023-03-04T01:07:44;101440.69;;;5.23;99.47
68793;BME280;55778;54.346;10.210;2023-03-04T01:10:11;101439.44;;;5.29;99.41
68793;BME280;55778;54.346;10.210;2023-03-04T01:12:37;101431.69;;;5.23;100.00
68793;BME280;55778;54.346;10.210;2023-03-04T01:15:04;101427.00;;;5.26;100.00
68793;BME280;55778;54.346;10.210;2023-03-04T01:17:30;101439.44;;;5.29;100.00
68793;BME280;55778;54.346;10.210;2023-03-04T01:19:55;101440.59;;;5.25;100.00
68793;BME280;55778;54.346;10.210;2023-03-04T01:22:20;101445.22;;;5.23;100.00
68793;BME280;55778;54.346;10.210;2023-03-04T01:24:46;101438.19;;;5.20;100.00
68793;BME280;55778;54.346;10.210;2023-03-04T01:27:11;101448.88;;;5.22;100.00
68793;BME280;55778;54.346;10.210;2023-03-04T01:29:37;101428.13;;;5.22;100.00
68793;BME280;55778;54.346;10.210;2023-03-04T01:32:02;101433.72;;;5.19;100.00
68793;BME280;55778;54.346;10.210;2023-03-04T01:34:28;101417.59;;;5.18;100.00
68793;BME280;55778;54.346;10.210;2023-03-04T01:36:53;101423.97;;;5.17;100.00
68793;BME280;55778;54.346;10.210;2023-03-04T01:39:19;101426.03;;;5.13;100.00
68793;BME280;55778;54.346;10.210;2023-03-04T01:41:44;101408.84;;;5.14;100.00
68793;BME280;55778;54.346;10.210;2023-03-04T01:44:13;101405.06;;;5.17;100.00
68793;BME280;55778;54.346;10.210;2023-03-04T01:46:41;101398.59;;;5.19;100.00
68793;BME280;55778;54.346;10.210;2023-03-04T01:49:08;101406.13;;;5.14;100.00
68793;BME280;55778;54.346;10.210;2023-03-04T01:51:36;101406.03;;;5.16;100.00
68793;BME280;55778;54.346;10.210;2023-03-04T01:54:02;101394.06;;;5.20;100.00
68793;BME280;55778;54.346;10.210;2023-03-04T01:56:29;101378.25;;;5.28;100.00
68793;BME280;55778;54.346;10.210;2023-03-04T01:59:16;101384.88;;;5.22;100.00
68793;BME280;55778;54.346;10.210;2023-03-04T02:01:45;101388.66;;;5.20;100.00
68793;BME280;55778;54.346;10.210;2023-03-04T02:04:12;101383.28;;;5.34;100.00
68793;BME280;55778;54.346;10.210;2023-03-04T02:06:39;101376.22;;;5.31;100.00
68793;BME280;55778;54.346;10.210;2023-03-04T02:09:05;101379.50;;;5.36;100.00
68793;BME280;55778;54.346;10.210;2023-03-04T02:11:31;101372.28;;;5.37;100.00
68793;BME280;55778;54.346;10.210;2023-03-04T02:13:57;101370.81;;;5.31;100.00
68793;BME280;55778;54.346;10.210;2023-03-04T02:16:23;101371.38;;;5.36;100.00
68793;BME280;55778;54.346;10.210;2023-03-04T02:18:49;101365.09;;;5.36;100.00
68793;BME280;55778;54.346;10.210;2023-03-04T02:21:22;101355.38;;;5.33;100.00
68793;BME280;55778;54.346;10.210;2023-03-04T02:24:05;101358.66;;;5.24;100.00
68793;BME280;55778;54.346;10.210;2023-03-04T02:26:36;101354.13;;;5.25;100.00
68793;BME280;55778;54.346;10.210;2023-03-04T02:29:03;101353.84;;;5.29;100.00
68793;BME280;55778;54.346;10.210;2023-03-04T02:31:39;101350.16;;;5.30;100.00
68793;BME280;55778;54.346;10.210;2023-03-04T02:34:23;101352.97;;;5.29;98.66
68793;BME280;55778;54.346;10.210;2023-03-04T02:36:51;101349.19;;;5.31;95.67
68793;BME280;55778;54.346;10.210;2023-03-04T02:41:49;101340.88;;;5.34;95.34
68793;BME280;55778;54.346;10.210;2023-03-04T02:46:46;101340.53;;;5.26;96.67
68793;BME280;55778;54.346;10.210;2023-03-04T02:49:14;101329.81;;;5.25;97.21
68793;BME280;55778;54.346;10.210;2023-03-04T02:51:39;101335.22;;;5.25;98.01
68793;BME280;55778;54.346;10.210;2023-03-04T02:54:20;101339.66;;;5.26;98.61
68793;BME280;55778;54.346;10.210;2023-03-04T02:56:56;101336.47;;;5.19;99.40
68793;BME280;55778;54.346;10.210;2023-03-04T02:59:22;101341.84;;;5.19;99.51
68793;BME280;55778;54.346;10.210;2023-03-04T03:01:48;101335.22;;;5.25;97.34
68793;BME280;55778;54.346;10.210;2023-03-04T03:04:14;101344.06;;;5.27;97.33
68793;BME280;55778;54.346;10.210;2023-03-04T03:06:40;101341.47;;;5.25;95.56
68793;BME280;55778;54.346;10.210;2023-03-04T03:09:06;101339.06;;;5.21;92.75
68793;BME280;55778;54.346;10.210;2023-03-04T03:11:31;101338.13;;;5.22;92.04
68793;BME280;55778;54.346;10.210;2023-03-04T03:13:57;101330.41;;;5.16;90.69
68793;BME280;55778;54.346;10.210;2023-03-04T03:16:25;101338.91;;;5.10;91.09
68793;BME280;55778;54.346;10.210;2023-03-04T03:18:53;101334.19;;;5.13;90.81
68793;BME280;55778;54.346;10.210;2023-03-04T03:21:21;101339.78;;;5.10;91.13
68793;BME280;55778;54.346;10.210;2023-03-04T03:23:46;101346.72;;;5.14;90.68
68793;BME280;55778;54.346;10.210;2023-03-04T03:26:12;101345.19;;;5.10;91.30
68793;BME280;55778;54.346;10.210;2023-03-04T03:28:37;101333.69;;;5.07;91.70
68793;BME280;55778;54.346;10.210;2023-03-04T03:31:03;101338.41;;;5.03;92.40
68793;BME280;55778;54.346;10.210;2023-03-04T03:33:28;101339.09;;;5.07;92.52
68793;BME280;55778;54.346;10.210;2023-03-04T03:35:54;101335.59;;;5.05;92.08
68793;BME280;55778;54.346;10.210;2023-03-04T03:38:19;101335.59;;;5.05;91.21
68793;BME280;55778;54.346;10.210;2023-03-04T03:40:45;101338.91;;;5.10;91.24
68793;BME280;55778;54.346;10.210;2023-03-04T03:43:10;101334.75;;;5.04;91.41
68793;BME280;55778;54.346;10.210;2023-03-04T03:45:35;101337.66;;;5.01;91.76
68793;BME280;55778;54.346;10.210;2023-03-04T03:48:01;101327.69;;;5.02;91.85
68793;BME280;55778;54.346;10.210;2023-03-04T03:50:26;101330.13;;;4.92;91.61
68793;BME280;55778;54.346;10.210;2023-03-04T03:52:53;101325.47;;;4.94;91.38
68793;BME280;55778;54.346;10.210;2023-03-04T03:55:19;101335.53;;;4.92;90.66
68793;BME280;55778;54.346;10.210;2023-03-04T03:57:45;101327.22;;;4.95;89.13
68793;BME280;55778;54.346;10.210;2023-03-04T04:00:11;101321.34;;;4.89;88.10
68793;BME280;55778;54.346;10.210;2023-03-04T04:02:36;101324.81;;;4.91;87.50
68793;BME280;55778;54.346;10.210;2023-03-04T04:05:02;101317.56;;;4.91;86.41
68793;BME280;55778;54.346;10.210;2023-03-04T04:07:27;101319.81;;;4.85;86.41
68793;BME280;55778;54.346;10.210;2023-03-04T04:09:53;101327.81;;;4.86;85.76
68793;BME280;55778;54.346;10.210;2023-03-04T04:12:18;101331.84;;;4.79;86.25
68793;BME280;55778;54.346;10.210;2023-03-04T04:14:44;101331.63;;;4.82;85.62
68793;BME280;55778;54.346;10.210;2023-03-04T04:17:13;101335.59;;;4.77;86.50
68793;BME280;55778;54.346;10.210;2023-03-04T04:19:39;101327.59;;;4.75;86.73
68793;BME280;55778;54.346;10.210;2023-03-04T04:22:07;101319.50;;;4.75;86.16
68793;BME280;55778;54.346;10.210;2023-03-04T04:24:33;101326.06;;;4.71;86.70
68793;BME280;55778;54.346;10.210;2023-03-04T04:26:59;101332.34;;;4.72;86.29
68793;BME280;55778;54.346;10.210;2023-03-04T04:29:34;101330.56;;;4.71;86.07
68793;BME280;55778;54.346;10.210;2023-03-04T04:32:00;101325.09;;;4.72;85.88
68793;BME280;55778;54.346;10.210;2023-03-04T04:34:25;101330.84;;;4.66;86.52
68793;BME280;55778;54.346;10.210;2023-03-04T04:36:51;101323.38;;;4.71;86.27
68793;BME280;55778;54.346;10.210;2023-03-04T04:39:17;101330.56;;;4.71;86.05
68793;BME280;55778;54.346;10.210;2023-03-04T04:41:45;101330.84;;;4.66;86.39
68793;BME280;55778;54.346;10.210;2023-03-04T04:44:12;101330.09;;;4.64;86.91
68793;BME280;55778;54.346;10.210;2023-03-04T04:46:38;101334.72;;;4.62;87.44
68793;BME280;55778;54.346;10.210;2023-03-04T04:49:05;101325.00;;;4.60;86.58
68793;BME280;55778;54.346;10.210;2023-03-04T04:51:31;101331.44;;;4.57;86.04
68793;BME280;55778;54.346;10.210;2023-03-04T04:53:58;101337.00;;;4.54;86.07
68793;BME280;55778;54.346;10.210;2023-03-04T04:56:24;101320.16;;;4.51;85.89
68793;BME280;55778;54.346;10.210;2023-03-04T04:58:54;101333.75;;;4.49;85.42
68793;BME280;55778;54.346;10.210;2023-03-04T05:01:20;101333.66;;;4.51;85.27
68793;BME280;55778;54.346;10.210;2023-03-04T05:03:46;101341.25;;;4.44;85.91
68793;BME280;55778;54.346;10.210;2023-03-04T05:06:14;101339.50;;;4.43;85.77
68793;BME280;55778;54.346;10.210;2023-03-04T05:08:39;101337.56;;;4.45;85.60
68793;BME280;55778;54.346;10.210;2023-03-04T05:11:08;101347.69;;;4.42;86.32
68793;BME280;55778;54.346;10.210;2023-03-04T05:13:33;101342.31;;;4.42;86.41
68793;BME280;55778;54.346;10.210;2023-03-04T05:15:59;101343.56;;;4.36;86.73
68793;BME280;55778;54.346;10.210;2023-03-04T05:18:26;101334.22;;;4.42;86.25
68793;BME280;55778;54.346;10.210;2023-03-04T05:20:53;101345.28;;;4.37;87.10
68793;BME280;55778;54.346;10.210;2023-03-04T05:23:18;101340.94;;;4.35;86.32
68793;BME280;55778;54.346;10.210;2023-03-04T05:25:47;101345.66;;;4.31;85.89
68793;BME280;55778;54.346;10.210;2023-03-04T05:28:13;101349.31;;;4.30;86.21
68793;BME280;55778;54.346;10.210;2023-03-04T05:30:39;101340.44;;;4.28;84.99
68793;BME280;55778;54.346;10.210;2023-03-04T05:33:06;101332.63;;;4.24;84.77
68793;BME280;55778;54.346;10.210;2023-03-04T05:35:35;101342.16;;;4.29;84.29
68793;BME280;55778;54.346;10.210;2023-03-04T05:38:05;101342.44;;;4.25;84.19
68793;BME280;55778;54.346;10.210;2023-03-04T05:40:31;101339.81;;;4.23;84.34
68793;BME280;55778;54.346;10.210;2023-03-04T05:42:57;101344.47;;;4.21;83.57
68793;BME280;55778;54.346;10.210;2023-03-04T05:45:23;101339.81;;;4.23;83.23
68793;BME280;55778;54.346;10.210;2023-03-04T05:47:48;101341.94;;;4.18;83.23
68793;BME280;55778;54.346;10.210;2023-03-04T05:50:14;101343.69;;;4.19;83.06
68793;BME280;55778;54.346;10.210;2023-03-04T05:52:39;101343.84;;;4.16;83.92
68793;BME280;55778;54.346;10.210;2023-03-04T05:55:05;101340.56;;;4.11;84.35
68793;BME280;55778;54.346;10.210;2023-03-04T05:57:31;101344.22;;;4.10;84.82
68793;BME280;55778;54.346;10.210;2023-03-04T05:59:56;101345.78;;;4.14;84.85
68793;BME280;55778;54.346;10.210;2023-03-04T06:02:21;101338.56;;;4.14;84.82
68793;BME280;55778;54.346;10.210;2023-03-04T06:04:47;101334.13;;;4.13;82.78
68793;BME280;55778;54.346;10.210;2023-03-04T06:07:12;101337.84;;;4.11;82.94
68793;BME280;55778;54.346;10.210;2023-03-04T06:09:37;101343.06;;;4.14;82.03
68793;BME280;55778;54.346;10.210;2023-03-04T06:12:03;101349.53;;;4.11;81.94
68793;BME280;55778;54.346;10.210;2023-03-04T06:14:32;101341.25;;;4.14;81.69
68793;BME280;55778;54.346;10.210;2023-03-04T06:16:57;101350.41;;;4.12;81.44
68793;BME280;55778;54.346;10.210;2023-03-04T06:19:22;101334.41;;;4.09;81.15
68793;BME280;55778;54.346;10.210;2023-03-04T06:21:48;101345.47;;;4.04;80.89
68793;BME280;55778;54.346;10.210;2023-03-04T06:24:13;101351.03;;;4.01;81.65
68793;BME280;55778;54.346;10.210;2023-03-04T06:26:39;101345.72;;;4.00;81.44
68793;BME280;55778;54.346;10.210;2023-03-04T06:29:05;101344.66;;;4.02;81.76
68793;BME280;55778;54.346;10.210;2023-03-04T06:31:30;101353.81;;;4.00;82.26
68793;BME280;55778;54.346;10.210;2023-03-04T06:33:56;101365.66;;;3.97;82.41
68793;BME280;55778;54.346;10.210;2023-03-04T06:36:21;101380.00;;;3.98;82.33
68793;BME280;55778;54.346;10.210;2023-03-04T06:38:47;101378.19;;;3.98;82.24
68793;BME280;55778;54.346;10.210;2023-03-04T06:41:12;101376.28;;;4.00;82.56
68793;BME280;55778;54.346;10.210;2023-03-04T06:43:38;101372.97;;;3.95;82.46
68793;BME280;55778;54.346;10.210;2023-03-04T06:46:05;101369.38;;;3.95;82.77
68793;BME280;55778;54.346;10.210;2023-03-04T06:48:30;101377.03;;;4.02;81.89
68793;BME280;55778;54.346;10.210;2023-03-04T06:50:56;101357.31;;;4.02;81.73
68793;BME280;55778;54.346;10.210;2023-03-04T06:53:21;101366.16;;;4.04;81.80
68793;BME280;55778;54.346;10.210;2023-03-04T06:55:47;101374.41;;;4.01;81.50
68793;BME280;55778;54.346;10.210;2023-03-04T06:58:14;101378.00;;;4.01;81.86
68793;BME280;55778;54.346;10.210;2023-03-04T07:00:42;101376.28;;;4.00;81.85
68793;BME280;55778;54.346;10.210;2023-03-04T07:03:09;101379.06;;;3.99;81.84
68793;BME280;55778;54.346;10.210;2023-03-04T07:05:35;101381.28;;;4.06;80.76
68793;BME280;55778;54.346;10.210;2023-03-04T07:08:00;101371.91;;;3.98;79.87
68793;BME280;55778;54.346;10.210;2023-03-04T07:10:25;101374.59;;;3.98;79.57
68793;BME280;55778;54.346;10.210;2023-03-04T07:12:51;101375.41;;;4.00;80.13
68793;BME280;55778;54.346;10.210;2023-03-04T07:15:16;101373.47;;;4.02;80.00
68793;BME280;55778;54.346;10.210;2023-03-04T07:17:42;101368.84;;;4.04;80.29
68793;BME280;55778;54.346;10.210;2023-03-04T07:20:08;101374.41;;;4.01;79.86
68793;BME280;55778;54.346;10.210;2023-03-04T07:22:33;101374.06;;;4.07;79.53
68793;BME280;55778;54.346;10.210;2023-03-04T07:24:59;101369.38;;;4.10;79.13
68793;BME280;55778;54.346;10.210;2023-03-04T07:27:24;101364.81;;;4.11;79.26
68793;BME280;55778;54.346;10.210;2023-03-04T07:29:49;101370.13;;;4.12;79.38
68793;BME280;55778;54.346;10.210;2023-03-04T07:32:15;101377.91;;;4.03;79.36
68793;BME280;55778;54.346;10.210;2023-03-04T07:34:40;101381.09;;;4.09;79.49
68793;BME280;55778;54.346;10.210;2023-03-04T07:37:05;101391.78;;;4.11;80.06
68793;BME280;55778;54.346;10.210;2023-03-04T07:39:32;101401.72;;;4.10;80.53
68793;BME280;55778;54.346;10.210;2023-03-04T07:41:57;101407.03;;;4.12;80.84
68793;BME280;55778;54.346;10.210;2023-03-04T07:44:23;101414.78;;;4.02;79.65
68793;BME280;55778;54.346;10.210;2023-03-04T07:46:48;101415.22;;;4.10;79.95
68793;BME280;55778;54.346;10.210;2023-03-04T07:49:14;101409.47;;;4.01;79.37
68793;BME280;55778;54.346;10.210;2023-03-04T07:51:39;101408.72;;;3.99;78.68
68793;BME280;55778;54.346;10.210;2023-03-04T07:54:09;101418.72;;;3.97;78.73
68793;BME280;55778;54.346;10.210;2023-03-04T07:56:34;101405.19;;;4.12;78.52
68793;BME280;55778;54.346;10.210;2023-03-04T07:59:00;101416.50;;;4.19;78.14
68793;BME280;55778;54.346;10.210;2023-03-04T08:01:31;101413.97;;;4.32;78.46
68793;BME280;55778;54.346;10.210;2023-03-04T08:03:57;101423.00;;;4.31;79.11
68793;BME280;55778;54.346;10.210;2023-03-04T08:06:23;101415.25;;;4.40;78.70
68793;BME280;55778;54.346;10.210;2023-03-04T08:08:58;101416.31;;;4.22;78.06
68793;BME280;55778;54.346;10.210;2023-03-04T08:11:24;101411.09;;;4.19;78.93
68793;BME280;55778;54.346;10.210;2023-03-04T08:13:50;101405.88;;;4.32;78.94
68793;BME280;55778;54.346;10.210;2023-03-04T08:16:18;101408.56;;;4.32;79.18
68793;BME280;55778;54.346;10.210;2023-03-04T08:18:46;101413.09;;;4.31;79.09
68793;BME280;55778;54.346;10.210;2023-03-04T08:21:16;101407.09;;;4.26;76.92
68793;BME280;55778;54.346;10.210;2023-03-04T08:23:43;101415.81;;;4.15;76.16
68793;BME280;55778;54.346;10.210;2023-03-04T08:26:12;101428.34;;;4.17;76.80
68793;BME280;55778;54.346;10.210;2023-03-04T08:28:39;101406.16;;;4.11;75.30
68793;BME280;55778;54.346;10.210;2023-03-04T08:31:05;101402.84;;;4.06;76.75
68793;BME280;55778;54.346;10.210;2023-03-04T08:33:31;101418.09;;;4.07;76.52
68793;BME280;55778;54.346;10.210;2023-03-04T08:35:57;101409.38;;;4.02;75.81
68793;BME280;55778;54.346;10.210;2023-03-04T08:38:23;101412.34;;;4.13;75.83
68793;BME280;55778;54.346;10.210;2023-03-04T08:40:53;101400.38;;;4.33;74.75
68793;BME280;55778;54.346;10.210;2023-03-04T08:43:18;101403.66;;;4.38;74.71
68793;BME280;55778;54.346;10.210;2023-03-04T08:45:44;101412.84;;;4.20;73.57
68793;BME280;55778;54.346;10.210;2023-03-04T08:48:10;101421.28;;;4.14;73.61
68793;BME280;55778;54.346;10.210;2023-03-04T08:50:38;101421.50;;;4.41;73.68
68793;BME280;55778;54.346;10.210;2023-03-04T08:53:04;101399.50;;;4.62;72.47
68793;BME280;55778;54.346;10.210;2023-03-04T08:55:29;101395.56;;;4.38;72.42
68793;BME280;55778;54.346;10.210;2023-03-04T08:57:55;101401.06;;;4.37;72.90
68793;BME280;55778;54.346;10.210;2023-03-04T09:00:20;101410.47;;;4.30;72.87
68793;BME280;55778;54.346;10.210;2023-03-04T09:02:48;101412.03;;;4.34;73.80
68793;BME280;55778;54.346;10.210;2023-03-04T09:05:13;101430.06;;;4.33;73.13
68793;BME280;55778;54.346;10.210;2023-03-04T09:07:46;101418.91;;;4.39;73.78
68793;BME280;55778;54.346;10.210;2023-03-04T09:10:12;101412.53;;;4.40;73.71
68793;BME280;55778;54.346;10.210;2023-03-04T09:12:37;101412.25;;;4.74;73.53
68793;BME280;55778;54.346;10.210;2023-03-04T09:15:03;101416.47;;;4.64;74.16
68793;BME280;55778;54.346;10.210;2023-03-04T09:17:31;101413.72;;;4.50;73.14
68793;BME280;55778;54.346;10.210;2023-03-04T09:19:56;101415.25;;;4.40;74.14
68793;BME280;55778;54.346;10.210;2023-03-04T09:22:21;101413.63;;;4.52;75.22
68793;BME280;55778;54.346;10.210;2023-03-04T09:24:47;101413.81;;;4.49;75.27
68793;BME280;55778;54.346;10.210;2023-03-04T09:27:12;101417.41;;;4.34;74.60
68793;BME280;55778;54.346;10.210;2023-03-04T09:29:38;101430.81;;;4.35;74.83
68793;BME280;55778;54.346;10.210;2023-03-04T09:32:03;101418.69;;;4.42;74.53
68793;BME280;55778;54.346;10.210;2023-03-04T09:34:29;101421.72;;;4.52;74.93
68793;BME280;55778;54.346;10.210;2023-03-04T09:36:54;101414.53;;;4.37;74.81
68793;BME280;55778;54.346;10.210;2023-03-04T09:39:20;101425.75;;;4.45;75.10
68793;BME280;55778;54.346;10.210;2023-03-04T09:41:48;101427.47;;;4.61;74.25
68793;BME280;55778;54.346;10.210;2023-03-04T09:44:23;101427.91;;;4.54;73.67
68793;BME280;55778;54.346;10.210;2023-03-04T09:46:51;101414.19;;;4.43;74.04
68793;BME280;55778;54.346;10.210;2023-03-04T09:49:18;101434.16;;;4.54;74.08
68793;BME280;55778;54.346;10.210;2023-03-04T09:51:51;101430.44;;;4.57;74.22
68793;BME280;55778;54.346;10.210;2023-03-04T09:54:29;101430.34;;;4.58;73.64
68793;BME280;55778;54.346;10.210;2023-03-04T09:56:59;101422.34;;;4.71;73.78
68793;BME280;55778;54.346;10.210;2023-03-04T10:00:04;101423.84;;;4.76;74.98
68793;BME280;55778;54.346;10.210;2023-03-04T10:05:22;101425.34;;;4.66;75.12
68793;BME280;55778;54.346;10.210;2023-03-04T10:07:57;101429.03;;;4.79;75.10
68793;BME280;55778;54.346;10.210;2023-03-04T10:10:29;101419.06;;;4.95;73.90
68793;BME280;55778;54.346;10.210;2023-03-04T10:12:56;101412.72;;;4.81;73.71
68793;BME280;55778;54.346;10.210;2023-03-04T10:15:38;101411.56;;;4.71;73.95
68793;BME280;55778;54.346;10.210;2023-03-04T10:18:29;101412.75;;;4.51;74.68
68793;BME280;55778;54.346;10.210;2023-03-04T10:21:22;101419.47;;;4.60;75.42
68793;BME280;55778;54.346;10.210;2023-03-04T10:23:50;101421.09;;;4.62;75.86
68793;BME280;55778;54.346;10.210;2023-03-04T10:26:20;101423.19;;;4.57;76.32
68793;BME280;55778;54.346;10.210;2023-03-04T10:28:47;101425.44;;;4.65;76.76
68793;BME280;55778;54.346;10.210;2023-03-04T10:31:32;101425.97;;;4.56;76.53
68793;BME280;55778;54.346;10.210;2023-03-04T10:34:00;101428.19;;;4.49;77.42
68793;BME280;55778;54.346;10.210;2023-03-04T10:38:58;101428.94;;;4.51;77.63
68793;BME280;55778;54.346;10.210;2023-03-04T10:41:27;101435.03;;;4.55;78.25
68793;BME280;55778;54.346;10.210;2023-03-04T10:44:14;101434.16;;;4.54;77.82
68793;BME280;55778;54.346;10.210;2023-03-04T10:46:47;101432.06;;;4.59;78.28
68793;BME280;55778;54.346;10.210;2023-03-04T10:49:16;101430.81;;;4.51;77.96
68793;BME280;55778;54.346;10.210;2023-03-04T10:51:51;101432.34;;;4.55;78.46
68793;BME280;55778;54.346;10.210;2023-03-04T10:54:30;101437.31;;;4.47;78.05
68793;BME280;55778;54.346;10.210;2023-03-04T10:57:19;101434.34;;;4.51;79.01
68793;BME280;55778;54.346;10.210;2023-03-04T10:59:57;101431.06;;;4.46;79.01
68793;BME280;55778;54.346;10.210;2023-03-04T11:02:24;101436.94;;;4.53;79.14
68793;BME280;55778;54.346;10.210;2023-03-04T11:05:25;101434.13;;;4.70;78.11
68793;BME280;55778;54.346;10.210;2023-03-04T11:07:59;101440.16;;;4.89;78.89
68793;BME280;55778;54.346;10.210;2023-03-04T11:10:29;101431.44;;;4.84;78.16
68793;BME280;55778;54.346;10.210;2023-03-04T11:13:47;101440.44;;;4.84;78.40
68793;BME280;55778;54.346;10.210;2023-03-04T11:16:24;101459.78;;;4.77;78.39
68793;BME280;55778;54.346;10.210;2023-03-04T11:18:55;101446.00;;;4.67;78.28
68793;BME280;55778;54.346;10.210;2023-03-04T11:21:26;101446.75;;;4.69;79.80
68793;BME280;55778;54.346;10.210;2023-03-04T11:23:55;101452.25;;;4.68;80.08
68793;BME280;55778;54.346;10.210;2023-03-04T11:26:35;101441.78;;;4.77;80.53
68793;BME280;55778;54.346;10.210;2023-03-04T11:37:00;101450.66;;;4.93;79.72
68793;BME280;55778;54.346;10.210;2023-03-04T11:39:33;101448.63;;;4.83;79.28
68793;BME280;55778;54.346;10.210;2023-03-04T11:42:09;101448.25;;;4.89;79.81
68793;BME280;55778;54.346;10.210;2023-03-04T11:44:37;101449.13;;;5.03;78.94
68793;BME280;55778;54.346;10.210;2023-03-04T11:47:18;101441.66;;;5.36;77.52
68793;BME280;55778;54.346;10.210;2023-03-04T11:53:00;101449.34;;;5.14;78.56
68793;BME280;55778;54.346;10.210;2023-03-04T12:20:49;101428.63;;;5.29;77.09
68793;BME280;55778;54.346;10.210;2023-03-04T12:26:28;101426.97;;;5.12;77.34
68793;BME280;55778;54.346;10.210;2023-03-04T12:31:40;101419.25;;;4.92;78.72
68793;BME280;55778;54.346;10.210;2023-03-04T12:46:03;101380.50;;;6.29;75.57
68793;BME280;55778;54.346;10.210;2023-03-04T12:48:59;101391.38;;;6.42;73.51
68793;BME280;55778;54.346;10.210;2023-03-04T12:51:35;101381.81;;;6.24;71.36
68793;BME280;55778;54.346;10.210;2023-03-04T12:56:50;101383.25;;;6.81;71.21
68793;BME280;55778;54.346;10.210;2023-03-04T12:59:21;101376.50;;;6.74;70.09
68793;BME280;55778;54.346;10.210;2023-03-04T13:04:51;101392.13;;;4.94;73.68
68793;BME280;55778;54.346;10.210;2023-03-04T13:10:17;101391.81;;;4.84;74.01
68793;BME280;55778;54.346;10.210;2023-03-04T13:12:55;101390.50;;;5.05;73.71
68793;BME280;55778;54.346;10.210;2023-03-04T13:17:53;101390.31;;;6.05;66.13
68793;BME280;55778;54.346;10.210;2023-03-04T13:20:34;101392.25;;;5.89;66.84
68793;BME280;55778;54.346;10.210;2023-03-04T13:23:20;101393.34;;;5.86;64.04
68793;BME280;55778;54.346;10.210;2023-03-04T13:28:21;101392.41;;;5.31;67.73
68793;BME280;55778;54.346;10.210;2023-03-04T13:35:50;101384.47;;;5.70;62.01
68793;BME280;55778;54.346;10.210;2023-03-04T13:49:25;101379.03;;;6.38;58.11
68793;BME280;55778;54.346;10.210;2023-03-04T13:51:51;101371.06;;;6.09;57.38
68793;BME280;55778;54.346;10.210;2023-03-04T13:54:30;101379.66;;;5.61;57.69
68793;BME280;55778;54.346;10.210;2023-03-04T13:57:19;101373.94;;;5.80;59.66
68793;BME280;55778;54.346;10.210;2023-03-04T13:59:54;101377.09;;;5.46;58.96
68793;BME280;55778;54.346;10.210;2023-03-04T14:02:23;101379.69;;;5.47;61.27
68793;BME280;55778;54.346;10.210;2023-03-04T14:07:35;101379.13;;;5.14;61.48
68793;BME280;55778;54.346;10.210;2023-03-04T14:12:39;101382.19;;;5.36;63.03
68793;BME280;55778;54.346;10.210;2023-03-04T14:17:44;101375.06;;;5.35;63.64
68793;BME280;55778;54.346;10.210;2023-03-04T14:20:35;101382.19;;;5.36;63.62
68793;BME280;55778;54.346;10.210;2023-03-04T14:23:03;101382.00;;;5.39;64.20
68793;BME280;55778;54.346;10.210;2023-03-04T14:25:33;101383.28;;;5.34;64.32
68793;BME280;55778;54.346;10.210;2023-03-04T14:28:12;101376.16;;;5.59;64.38
68793;BME280;55778;54.346;10.210;2023-03-04T14:30:40;101378.81;;;5.47;63.87
68793;BME280;55778;54.346;10.210;2023-03-04T14:33:07;101376.78;;;5.36;64.82
68793;BME280;55778;54.346;10.210;2023-03-04T14:35:34;101384.03;;;5.22;63.98
68793;BME280;55778;54.346;10.210;2023-03-04T14:38:06;101379.69;;;5.19;64.67